Hartford Brainard Airport
KHFD : now visible

Airfield :











YOU CAN JOIN US ON...

 
LOGIN :

Register | Disclaimer

   EN    FR    IT 

 









Legend :    VFR   Marginal VFR   IFR   Intensive IFR   Very Intensive IFR
Visi :
Ceiling :
>= 8 km
>= 3000ft
5 to 8 km
1000 to 3000 ft
1500m to 5 km
500 to 1000 ft
800 to 1500m
200 to 500 ft
< 800m
< 200 ft
Symbols :   Thunderstorms  Fog  Heavy snow  Heavy precipitations  Wind > 20 kt






- Airport Elevation : 18 ft


KHFD - Hartford Brainard

CURRENT METAR :
  • 271522Z 34007KT 9SM BKN010 OVC021 00/M03 A3003 RMK AO2 SNE1455 CIG 009V013 P0000 T00001033

EXPIRED METARs :
  • 271515Z 34008KT 8SM BKN009 OVC021 M01/M03 A3003 RMK AO2 SNE1455 P0000 T10061033
  • 271453Z 36008KT 6SM -SN FEW009 OVC021 M01/M03 A3001 RMK AO2 SNE02B11 SLP161 P0000 60000 T10061033 51022
  • 271435Z 01008KT 4SM -SN FEW010 OVC021 M01/M03 A3000 RMK AO2 SNE02B11 P0000 T10061033
  • 271423Z 36006KT 2 1/2SM -SN FEW008 BKN021 OVC070 M01/M03 A3000 RMK AO2 SNE02B11 P0000 T10061033
  • 271405Z 36007KT 5SM HZ SCT008 BKN027 OVC070 M01/M03 A3000 RMK AO2 SNE02 P0000 T10061033
  • 271353Z 01008KT 5SM -SN BR BKN007 BKN021 OVC026 M01/M03 A2999 RMK AO2 SLP155 P0000 T10111033
  • 271338Z 01005KT 4SM -SN BR BKN007 BKN021 OVC026 M01/M03 A2998 RMK AO2 P0000 T10111033
  • 271329Z 01006KT 3SM -SN BR SCT007 OVC021 M01/M03 A2998 RMK AO2 P0000 T10111033
  • 271305Z 01006KT 2 1/2SM -SN BR FEW008 OVC021 M01/M03 A2997 RMK AO2 P0000 T10111033
  • 271253Z 01005KT 3SM -SN BR FEW008 BKN021 OVC029 M01/M03 A2997 RMK AO2 SLP148 P0000 T10111033

TAF N/A
KZBW FIR / North America



MET'MAP, your aeronautical weather chart ! - Copyright ORBIFLY December 2007 - Disclaimer

ORBIFLY MET'MAP TEAM :

Programming & Development : Alexandra Zaïnal
Concept & original design : Baudouin d'Aumeries
Assistance for programming : Marc-Olivier Méhu
Technical & hardware support : Manuel Goepfert

Contact : metmap@orbifly.com




SOURCES & CREDITS :

   NOAA       Earth
Advisory